sensor_id;sensor_type;location;lat;lon;timestamp;pressure;altitude;pressure_sealevel;temperature;humidity
40013;BME280;37387;42.672;23.334;2022-09-21T00:04:29;945.4;;;8.2;96.1
40013;BME280;37387;42.672;23.334;2022-09-21T00:07:29;945.5;;;8.1;96.6
40013;BME280;37387;42.672;23.334;2022-09-21T00:13:29;945.5;;;8.0;97.4
40013;BME280;37387;42.672;23.334;2022-09-21T00:14:29;945.5;;;7.9;97.0
40013;BME280;37387;42.672;23.334;2022-09-21T00:16:29;945.5;;;7.8;98.1
40013;BME280;37387;42.672;23.334;2022-09-21T00:20:29;945.5;;;7.7;99.0
40013;BME280;37387;42.672;23.334;2022-09-21T00:22:29;945.5;;;7.6;100.0
40013;BME280;37387;42.672;23.334;2022-09-21T00:24:29;945.5;;;7.5;100.0
40013;BME280;37387;42.672;23.334;2022-09-21T00:25:29;945.5;;;7.4;100.0
40013;BME280;37387;42.672;23.334;2022-09-21T00:31:29;945.4;;;7.3;100.0
40013;BME280;37387;42.672;23.334;2022-09-21T00:34:29;945.4;;;7.4;100.0
40013;BME280;37387;42.672;23.334;2022-09-21T00:35:29;945.4;;;7.3;100.0
40013;BME280;37387;42.672;23.334;2022-09-21T00:39:29;945.4;;;7.2;100.0
40013;BME280;37387;42.672;23.334;2022-09-21T00:46:29;945.4;;;7.3;100.0
40013;BME280;37387;42.672;23.334;2022-09-21T00:47:30;945.4;;;7.2;100.0
40013;BME280;37387;42.672;23.334;2022-09-21T00:49:29;945.4;;;7.1;100.0
40013;BME280;37387;42.672;23.334;2022-09-21T00:52:30;945.5;;;7.2;100.0
40013;BME280;37387;42.672;23.334;2022-09-21T00:54:30;945.4;;;7.1;100.0
40013;BME280;37387;42.672;23.334;2022-09-21T00:58:30;945.4;;;7.0;100.0
40013;BME280;37387;42.672;23.334;2022-09-21T01:06:29;945.4;;;6.9;100.0
40013;BME280;37387;42.672;23.334;2022-09-21T01:08:29;945.4;;;6.8;100.0
40013;BME280;37387;42.672;23.334;2022-09-21T01:16:31;945.4;;;6.9;100.0
40013;BME280;37387;42.672;23.334;2022-09-21T01:20:40;945.4;;;6.8;100.0
40013;BME280;37387;42.672;23.334;2022-09-21T01:21:29;945.4;;;6.9;100.0
40013;BME280;37387;42.672;23.334;2022-09-21T01:25:32;945.4;;;6.8;100.0
40013;BME280;37387;42.672;23.334;2022-09-21T01:26:32;945.4;;;6.9;100.0
40013;BME280;37387;42.672;23.334;2022-09-21T01:30:29;945.3;;;6.8;100.0
40013;BME280;37387;42.672;23.334;2022-09-21T01:33:31;945.2;;;6.9;100.0
40013;BME280;37387;42.672;23.334;2022-09-21T01:34:30;945.2;;;7.0;100.0
40013;BME280;37387;42.672;23.334;2022-09-21T01:36:29;945.2;;;6.9;100.0
40013;BME280;37387;42.672;23.334;2022-09-21T01:42:29;945.2;;;6.8;100.0
40013;BME280;37387;42.672;23.334;2022-09-21T01:43:30;945.2;;;6.7;100.0
40013;BME280;37387;42.672;23.334;2022-09-21T01:46:29;945.2;;;6.6;100.0
40013;BME280;37387;42.672;23.334;2022-09-21T01:47:29;945.2;;;6.5;100.0
40013;BME280;37387;42.672;23.334;2022-09-21T01:48:30;945.2;;;6.6;100.0
40013;BME280;37387;42.672;23.334;2022-09-21T01:54:31;945.2;;;6.5;100.0
40013;BME280;37387;42.672;23.334;2022-09-21T01:55:30;945.2;;;6.6;100.0
40013;BME280;37387;42.672;23.334;2022-09-21T01:56:31;945.3;;;6.5;100.0
40013;BME280;37387;42.672;23.334;2022-09-21T01:57:30;945.3;;;6.6;100.0
40013;BME280;37387;42.672;23.334;2022-09-21T01:58:30;945.3;;;6.7;100.0
40013;BME280;37387;42.672;23.334;2022-09-21T02:00:29;945.2;;;6.6;100.0
40013;BME280;37387;42.672;23.334;2022-09-21T02:02:30;945.2;;;6.7;100.0
40013;BME280;37387;42.672;23.334;2022-09-21T02:09:29;945.2;;;6.8;100.0
40013;BME280;37387;42.672;23.334;2022-09-21T02:10:30;945.2;;;6.7;100.0
40013;BME280;37387;42.672;23.334;2022-09-21T02:14:29;945.3;;;6.8;100.0
40013;BME280;37387;42.672;23.334;2022-09-21T02:15:31;945.3;;;6.7;100.0
40013;BME280;37387;42.672;23.334;2022-09-21T02:22:31;945.3;;;6.6;100.0
40013;BME280;37387;42.672;23.334;2022-09-21T02:23:31;945.3;;;6.7;100.0
40013;BME280;37387;42.672;23.334;2022-09-21T02:25:33;945.4;;;6.6;100.0
40013;BME280;37387;42.672;23.334;2022-09-21T02:41:30;945.4;;;6.5;100.0
40013;BME280;37387;42.672;23.334;2022-09-21T02:43:30;945.4;;;6.4;100.0
40013;BME280;37387;42.672;23.334;2022-09-21T02:44:30;945.4;;;6.5;100.0
40013;BME280;37387;42.672;23.334;2022-09-21T02:45:30;945.4;;;6.4;100.0
40013;BME280;37387;42.672;23.334;2022-09-21T02:46:30;945.4;;;6.5;100.0
40013;BME280;37387;42.672;23.334;2022-09-21T02:47:30;945.4;;;6.4;100.0
40013;BME280;37387;42.672;23.334;2022-09-21T02:50:30;945.4;;;6.3;100.0
40013;BME280;37387;42.672;23.334;2022-09-21T02:57:29;945.4;;;6.2;100.0
40013;BME280;37387;42.672;23.334;2022-09-21T03:01:30;945.4;;;6.1;100.0
40013;BME280;37387;42.672;23.334;2022-09-21T03:02:34;945.4;;;6.0;100.0
40013;BME280;37387;42.672;23.334;2022-09-21T03:03:29;945.4;;;5.9;100.0
40013;BME280;37387;42.672;23.334;2022-09-21T03:04:29;945.5;;;5.8;100.0
40013;BME280;37387;42.672;23.334;2022-09-21T03:11:29;945.5;;;5.7;100.0
40013;BME280;37387;42.672;23.334;2022-09-21T03:13:29;945.5;;;5.8;100.0
40013;BME280;37387;42.672;23.334;2022-09-21T03:26:29;945.5;;;5.9;100.0
40013;BME280;37387;42.672;23.334;2022-09-21T03:29:29;945.5;;;5.8;100.0
40013;BME280;37387;42.672;23.334;2022-09-21T03:30:29;945.5;;;5.9;100.0
40013;BME280;37387;42.672;23.334;2022-09-21T03:31:29;945.5;;;5.8;100.0
40013;BME280;37387;42.672;23.334;2022-09-21T03:32:29;945.5;;;5.9;100.0
40013;BME280;37387;42.672;23.334;2022-09-21T03:34:29;945.5;;;5.8;100.0
40013;BME280;37387;42.672;23.334;2022-09-21T03:36:29;945.5;;;5.7;100.0
40013;BME280;37387;42.672;23.334;2022-09-21T03:37:29;945.5;;;5.8;100.0
40013;BME280;37387;42.672;23.334;2022-09-21T03:42:29;945.5;;;5.9;100.0
40013;BME280;37387;42.672;23.334;2022-09-21T03:49:29;945.6;;;5.8;100.0
40013;BME280;37387;42.672;23.334;2022-09-21T03:51:29;945.6;;;5.9;100.0
40013;BME280;37387;42.672;23.334;2022-09-21T03:54:29;945.6;;;6.0;100.0
40013;BME280;37387;42.672;23.334;2022-09-21T04:07:30;945.6;;;5.9;100.0
40013;BME280;37387;42.672;23.334;2022-09-21T04:09:29;945.6;;;6.0;100.0
40013;BME280;37387;42.672;23.334;2022-09-21T04:12:29;945.6;;;6.1;100.0
40013;BME280;37387;42.672;23.334;2022-09-21T04:17:29;945.6;;;6.2;100.0
40013;BME280;37387;42.672;23.334;2022-09-21T04:20:29;945.7;;;6.3;100.0
40013;BME280;37387;42.672;23.334;2022-09-21T04:22:29;945.6;;;6.4;100.0
40013;BME280;37387;42.672;23.334;2022-09-21T04:23:29;945.6;;;6.5;100.0
40013;BME280;37387;42.672;23.334;2022-09-21T04:24:29;945.7;;;6.6;100.0
40013;BME280;37387;42.672;23.334;2022-09-21T04:26:30;945.6;;;6.7;100.0
40013;BME280;37387;42.672;23.334;2022-09-21T04:29:29;945.6;;;6.8;100.0
40013;BME280;37387;42.672;23.334;2022-09-21T04:30:29;945.6;;;6.9;100.0
40013;BME280;37387;42.672;23.334;2022-09-21T04:32:29;945.6;;;7.0;100.0
40013;BME280;37387;42.672;23.334;2022-09-21T04:33:29;945.6;;;7.1;100.0
40013;BME280;37387;42.672;23.334;2022-09-21T04:35:29;945.6;;;7.2;100.0
40013;BME280;37387;42.672;23.334;2022-09-21T04:37:29;945.7;;;7.3;100.0
40013;BME280;37387;42.672;23.334;2022-09-21T04:38:29;945.6;;;7.4;100.0
40013;BME280;37387;42.672;23.334;2022-09-21T04:39:29;945.6;;;7.5;100.0
40013;BME280;37387;42.672;23.334;2022-09-21T04:40:29;945.6;;;7.6;100.0
40013;BME280;37387;42.672;23.334;2022-09-21T04:41:29;945.6;;;7.7;100.0
40013;BME280;37387;42.672;23.334;2022-09-21T04:42:29;945.6;;;7.8;100.0
40013;BME280;37387;42.672;23.334;2022-09-21T04:43:29;945.7;;;8.1;100.0
40013;BME280;37387;42.672;23.334;2022-09-21T04:44:29;945.7;;;8.2;100.0
40013;BME280;37387;42.672;23.334;2022-09-21T04:45:29;945.7;;;8.3;100.0
40013;BME280;37387;42.672;23.334;2022-09-21T04:46:29;945.7;;;8.4;100.0
40013;BME280;37387;42.672;23.334;2022-09-21T04:47:29;945.7;;;8.6;99.0
40013;BME280;37387;42.672;23.334;2022-09-21T04:48:29;945.7;;;8.9;99.0
40013;BME280;37387;42.672;23.334;2022-09-21T04:49:29;945.6;;;9.5;92.9
40013;BME280;37387;42.672;23.334;2022-09-21T04:50:29;945.6;;;10.0;92.9
40013;BME280;37387;42.672;23.334;2022-09-21T04:51:29;945.6;;;10.6;89.3
40013;BME280;37387;42.672;23.334;2022-09-21T04:52:29;945.6;;;11.0;89.3
40013;BME280;37387;42.672;23.334;2022-09-21T04:53:29;945.7;;;11.7;82.0
40013;BME280;37387;42.672;23.334;2022-09-21T04:54:30;945.7;;;12.4;78.1
40013;BME280;37387;42.672;23.334;2022-09-21T04:55:29;945.7;;;13.1;69.6
40013;BME280;37387;42.672;23.334;2022-09-21T04:56:29;945.7;;;14.0;69.6
40013;BME280;37387;42.672;23.334;2022-09-21T04:57:29;945.7;;;15.1;65.9
40013;BME280;37387;42.672;23.334;2022-09-21T04:58:29;945.7;;;15.5;62.6
40013;BME280;37387;42.672;23.334;2022-09-21T04:59:29;945.8;;;15.2;59.4
40013;BME280;37387;42.672;23.334;2022-09-21T05:00:29;945.8;;;16.2;59.4
40013;BME280;37387;42.672;23.334;2022-09-21T05:01:29;945.8;;;16.3;55.8
40013;BME280;37387;42.672;23.334;2022-09-21T05:03:29;945.8;;;15.9;55.5
40013;BME280;37387;42.672;23.334;2022-09-21T05:04:29;945.8;;;16.0;55.5
40013;BME280;37387;42.672;23.334;2022-09-21T05:05:29;945.8;;;15.6;55.2
40013;BME280;37387;42.672;23.334;2022-09-21T05:06:29;945.8;;;14.7;55.9
40013;BME280;37387;42.672;23.334;2022-09-21T05:07:29;945.8;;;13.5;62.0
40013;BME280;37387;42.672;23.334;2022-09-21T05:08:29;945.8;;;13.3;63.0
40013;BME280;37387;42.672;23.334;2022-09-21T05:09:29;945.8;;;13.1;64.4
40013;BME280;37387;42.672;23.334;2022-09-21T05:10:29;945.8;;;13.0;65.3
40013;BME280;37387;42.672;23.334;2022-09-21T05:11:29;945.8;;;12.9;65.3
40013;BME280;37387;42.672;23.334;2022-09-21T05:12:29;945.8;;;13.2;64.9
40013;BME280;37387;42.672;23.334;2022-09-21T05:13:29;945.8;;;13.1;64.9
40013;BME280;37387;42.672;23.334;2022-09-21T05:14:29;945.8;;;13.0;64.8
40013;BME280;37387;42.672;23.334;2022-09-21T05:15:29;945.8;;;12.9;64.8
40013;BME280;37387;42.672;23.334;2022-09-21T05:16:29;945.8;;;13.2;64.8
40013;BME280;37387;42.672;23.334;2022-09-21T05:17:29;945.8;;;13.3;62.9
40013;BME280;37387;42.672;23.334;2022-09-21T05:18:29;945.8;;;13.6;62.9
40013;BME280;37387;42.672;23.334;2022-09-21T05:19:29;945.8;;;14.3;61.6
40013;BME280;37387;42.672;23.334;2022-09-21T05:20:29;945.8;;;14.9;61.6
40013;BME280;37387;42.672;23.334;2022-09-21T05:21:29;945.8;;;15.9;58.7
40013;BME280;37387;42.672;23.334;2022-09-21T05:22:29;945.8;;;17.0;56.3
40013;BME280;37387;42.672;23.334;2022-09-21T05:23:30;945.9;;;17.7;52.3
40013;BME280;37387;42.672;23.334;2022-09-21T05:24:29;945.9;;;17.5;49.6
40013;BME280;37387;42.672;23.334;2022-09-21T05:25:29;945.9;;;17.1;49.3
40013;BME280;37387;42.672;23.334;2022-09-21T05:26:29;945.9;;;16.9;50.9
40013;BME280;37387;42.672;23.334;2022-09-21T05:27:29;945.9;;;17.1;50.9
40013;BME280;37387;42.672;23.334;2022-09-21T05:28:29;945.9;;;17.3;50.6
40013;BME280;37387;42.672;23.334;2022-09-21T05:30:29;945.9;;;17.8;49.4
40013;BME280;37387;42.672;23.334;2022-09-21T05:31:31;945.9;;;17.6;49.2
40013;BME280;37387;42.672;23.334;2022-09-21T05:32:32;945.9;;;17.2;49.4
40013;BME280;37387;42.672;23.334;2022-09-21T05:33:29;946.0;;;17.8;48.3
40013;BME280;37387;42.672;23.334;2022-09-21T05:34:34;946.0;;;17.1;48.3
40013;BME280;37387;42.672;23.334;2022-09-21T05:35:31;945.9;;;17.3;49.0
40013;BME280;37387;42.672;23.334;2022-09-21T05:36:33;945.9;;;17.6;48.4
40013;BME280;37387;42.672;23.334;2022-09-21T05:38:29;945.9;;;18.0;48.3
40013;BME280;37387;42.672;23.334;2022-09-21T05:39:29;945.9;;;18.5;46.2
40013;BME280;37387;42.672;23.334;2022-09-21T05:40:30;945.9;;;17.9;46.2
40013;BME280;37387;42.672;23.334;2022-09-21T05:41:29;945.9;;;18.1;47.2
40013;BME280;37387;42.672;23.334;2022-09-21T05:42:29;945.9;;;18.7;45.7
40013;BME280;37387;42.672;23.334;2022-09-21T05:43:29;945.9;;;18.5;45.7
40013;BME280;37387;42.672;23.334;2022-09-21T05:44:29;945.9;;;18.1;46.9
40013;BME280;37387;42.672;23.334;2022-09-21T05:45:29;945.9;;;17.8;47.7
40013;BME280;37387;42.672;23.334;2022-09-21T05:47:33;945.9;;;18.2;47.2
40013;BME280;37387;42.672;23.334;2022-09-21T05:48:30;945.9;;;19.1;45.1
40013;BME280;37387;42.672;23.334;2022-09-21T05:49:32;945.9;;;18.7;45.5
40013;BME280;37387;42.672;23.334;2022-09-21T05:50:34;945.9;;;19.4;44.6
40013;BME280;37387;42.672;23.334;2022-09-21T05:52:32;945.9;;;19.6;44.8
40013;BME280;37387;42.672;23.334;2022-09-21T05:53:34;945.9;;;20.1;43.7
40013;BME280;37387;42.672;23.334;2022-09-21T05:54:32;945.9;;;20.2;43.3
40013;BME280;37387;42.672;23.334;2022-09-21T05:55:31;945.9;;;20.6;42.9
40013;BME280;37387;42.672;23.334;2022-09-21T05:56:33;945.9;;;19.8;42.6
40013;BME280;37387;42.672;23.334;2022-09-21T05:57:33;945.9;;;19.2;42.6
40013;BME280;37387;42.672;23.334;2022-09-21T05:58:31;945.9;;;18.5;45.6
40013;BME280;37387;42.672;23.334;2022-09-21T05:59:34;945.9;;;17.9;45.6
40013;BME280;37387;42.672;23.334;2022-09-21T06:00:30;945.9;;;17.8;47.5
40013;BME280;37387;42.672;23.334;2022-09-21T06:01:34;945.9;;;18.1;47.5
40013;BME280;37387;42.672;23.334;2022-09-21T06:02:37;945.8;;;17.6;47.1
40013;BME280;37387;42.672;23.334;2022-09-21T06:03:30;945.8;;;16.9;47.9
40013;BME280;37387;42.672;23.334;2022-09-21T06:04:29;945.8;;;15.7;49.4
40013;BME280;37387;42.672;23.334;2022-09-21T06:05:29;945.8;;;15.8;52.9
40013;BME280;37387;42.672;23.334;2022-09-21T06:06:29;945.8;;;16.1;52.9
40013;BME280;37387;42.672;23.334;2022-09-21T06:07:29;945.8;;;16.0;52.4
40013;BME280;37387;42.672;23.334;2022-09-21T06:08:29;945.8;;;15.4;54.0
40013;BME280;37387;42.672;23.334;2022-09-21T06:09:29;945.8;;;15.6;54.0
40013;BME280;37387;42.672;23.334;2022-09-21T06:10:31;945.8;;;16.0;54.2
40013;BME280;37387;42.672;23.334;2022-09-21T06:12:29;945.9;;;16.3;52.9
40013;BME280;37387;42.672;23.334;2022-09-21T06:13:29;945.9;;;16.4;52.4
40013;BME280;37387;42.672;23.334;2022-09-21T06:14:29;945.9;;;16.0;52.8
40013;BME280;37387;42.672;23.334;2022-09-21T06:15:29;945.9;;;15.0;52.8
40013;BME280;37387;42.672;23.334;2022-09-21T06:16:35;945.8;;;14.5;55.3
40013;BME280;37387;42.672;23.334;2022-09-21T06:17:29;945.8;;;14.7;57.1
40013;BME280;37387;42.672;23.334;2022-09-21T06:18:29;945.9;;;14.8;57.0
40013;BME280;37387;42.672;23.334;2022-09-21T06:19:29;945.9;;;15.1;57.0
40013;BME280;37387;42.672;23.334;2022-09-21T06:20:29;945.9;;;15.3;55.9
40013;BME280;37387;42.672;23.334;2022-09-21T06:24:29;945.9;;;15.8;55.8
40013;BME280;37387;42.672;23.334;2022-09-21T06:25:29;945.9;;;16.1;54.9
40013;BME280;37387;42.672;23.334;2022-09-21T06:26:29;945.9;;;16.3;54.1
40013;BME280;37387;42.672;23.334;2022-09-21T06:27:29;946.0;;;16.1;53.3
40013;BME280;37387;42.672;23.334;2022-09-21T06:28:29;945.9;;;16.2;54.2
40013;BME280;37387;42.672;23.334;2022-09-21T06:29:29;945.9;;;16.6;54.2
40013;BME280;37387;42.672;23.334;2022-09-21T06:30:29;946.0;;;17.2;51.6
40013;BME280;37387;42.672;23.334;2022-09-21T06:31:29;946.0;;;18.4;51.6
40013;BME280;37387;42.672;23.334;2022-09-21T06:32:29;946.0;;;19.4;49.0
40013;BME280;37387;42.672;23.334;2022-09-21T06:33:29;946.0;;;18.6;47.5
40013;BME280;37387;42.672;23.334;2022-09-21T06:34:29;946.0;;;18.3;47.5
40013;BME280;37387;42.672;23.334;2022-09-21T06:35:30;946.0;;;18.1;48.0
40013;BME280;37387;42.672;23.334;2022-09-21T06:36:29;946.0;;;18.3;48.2
40013;BME280;37387;42.672;23.334;2022-09-21T06:37:29;946.0;;;17.6;48.2
40013;BME280;37387;42.672;23.334;2022-09-21T06:38:29;946.1;;;17.4;48.9
40013;BME280;37387;42.672;23.334;2022-09-21T06:39:29;946.1;;;17.6;49.5
40013;BME280;37387;42.672;23.334;2022-09-21T06:40:30;946.1;;;17.8;48.6
40013;BME280;37387;42.672;23.334;2022-09-21T06:41:29;946.1;;;17.4;48.6
40013;BME280;37387;42.672;23.334;2022-09-21T06:43:29;946.1;;;17.5;49.7
40013;BME280;37387;42.672;23.334;2022-09-21T06:44:29;946.1;;;16.4;49.7
40013;BME280;37387;42.672;23.334;2022-09-21T06:45:29;946.1;;;16.9;52.0
40013;BME280;37387;42.672;23.334;2022-09-21T06:46:29;946.1;;;17.5;50.1
40013;BME280;37387;42.672;23.334;2022-09-21T06:47:29;946.1;;;18.2;48.4
40013;BME280;37387;42.672;23.334;2022-09-21T06:50:29;946.1;;;18.7;48.1
40013;BME280;37387;42.672;23.334;2022-09-21T06:51:29;946.1;;;18.9;46.4
40013;BME280;37387;42.672;23.334;2022-09-21T06:52:29;946.1;;;19.1;45.9
40013;BME280;37387;42.672;23.334;2022-09-21T06:53:30;946.1;;;19.4;45.9
40013;BME280;37387;42.672;23.334;2022-09-21T06:54:29;946.2;;;19.9;45.4
40013;BME280;37387;42.672;23.334;2022-09-21T06:55:30;946.2;;;19.6;44.4
40013;BME280;37387;42.672;23.334;2022-09-21T06:56:29;946.2;;;19.4;45.4
40013;BME280;37387;42.672;23.334;2022-09-21T06:57:30;946.2;;;20.0;45.4
40013;BME280;37387;42.672;23.334;2022-09-21T06:58:29;946.3;;;20.3;44.5
40013;BME280;37387;42.672;23.334;2022-09-21T06:59:29;946.3;;;20.0;44.0
40013;BME280;37387;42.672;23.334;2022-09-21T07:00:30;946.3;;;20.6;44.0
40013;BME280;37387;42.672;23.334;2022-09-21T07:01:29;946.3;;;20.7;43.1
40013;BME280;37387;42.672;23.334;2022-09-21T07:02:29;946.2;;;20.3;43.2
40013;BME280;37387;42.672;23.334;2022-09-21T07:03:29;946.2;;;20.5;43.2
40013;BME280;37387;42.672;23.334;2022-09-21T07:04:29;946.2;;;20.2;43.3
40013;BME280;37387;42.672;23.334;2022-09-21T07:05:29;946.3;;;21.3;41.8
40013;BME280;37387;42.672;23.334;2022-09-21T07:06:29;946.3;;;21.0;41.9
40013;BME280;37387;42.672;23.334;2022-09-21T07:07:29;946.2;;;20.4;43.0
40013;BME280;37387;42.672;23.334;2022-09-21T07:08:29;946.2;;;19.9;43.0
40013;BME280;37387;42.672;23.334;2022-09-21T07:09:29;946.3;;;19.5;45.0
40013;BME280;37387;42.672;23.334;2022-09-21T07:10:29;946.3;;;19.4;45.0
40013;BME280;37387;42.672;23.334;2022-09-21T07:11:29;946.3;;;19.2;45.3
40013;BME280;37387;42.672;23.334;2022-09-21T07:13:31;946.2;;;19.1;45.9
40013;BME280;37387;42.672;23.334;2022-09-21T07:14:29;946.2;;;18.7;46.6
40013;BME280;37387;42.672;23.334;2022-09-21T07:15:29;946.2;;;18.2;48.6
40013;BME280;37387;42.672;23.334;2022-09-21T07:16:29;946.2;;;18.3;48.6
40013;BME280;37387;42.672;23.334;2022-09-21T07:17:30;946.2;;;17.9;48.1
40013;BME280;37387;42.672;23.334;2022-09-21T07:19:29;946.2;;;17.7;48.9
40013;BME280;37387;42.672;23.334;2022-09-21T07:20:29;946.2;;;18.2;49.8
40013;BME280;37387;42.672;23.334;2022-09-21T07:21:29;946.2;;;17.9;49.6
40013;BME280;37387;42.672;23.334;2022-09-21T07:22:30;946.2;;;17.6;49.6
40013;BME280;37387;42.672;23.334;2022-09-21T07:23:29;946.2;;;17.3;51.1
40013;BME280;37387;42.672;23.334;2022-09-21T07:24:29;946.2;;;17.2;51.1
40013;BME280;37387;42.672;23.334;2022-09-21T07:25:29;946.2;;;16.7;52.7
40013;BME280;37387;42.672;23.334;2022-09-21T07:26:29;946.2;;;16.8;52.7
40013;BME280;37387;42.672;23.334;2022-09-21T07:27:30;946.2;;;17.0;52.7
40013;BME280;37387;42.672;23.334;2022-09-21T07:28:29;946.2;;;17.4;51.3
40013;BME280;37387;42.672;23.334;2022-09-21T07:29:29;946.2;;;17.5;51.1
40013;BME280;37387;42.672;23.334;2022-09-21T07:30:29;946.2;;;16.5;51.1
40013;BME280;37387;42.672;23.334;2022-09-21T07:31:29;946.2;;;16.1;53.2
40013;BME280;37387;42.672;23.334;2022-09-21T07:32:29;946.1;;;16.0;54.4
40013;BME280;37387;42.672;23.334;2022-09-21T07:33:29;946.2;;;15.7;55.6
40013;BME280;37387;42.672;23.334;2022-09-21T07:34:32;946.2;;;15.8;55.5
40013;BME280;37387;42.672;23.334;2022-09-21T07:35:29;946.2;;;15.7;56.2
40013;BME280;37387;42.672;23.334;2022-09-21T07:36:29;946.2;;;15.9;55.9
40013;BME280;37387;42.672;23.334;2022-09-21T07:37:30;946.2;;;16.1;55.9
40013;BME280;37387;42.672;23.334;2022-09-21T07:39:29;946.2;;;16.2;55.7
40013;BME280;37387;42.672;23.334;2022-09-21T07:40:29;946.2;;;16.1;55.6
40013;BME280;37387;42.672;23.334;2022-09-21T07:41:29;946.2;;;16.3;55.6
40013;BME280;37387;42.672;23.334;2022-09-21T07:42:29;946.2;;;15.7;55.6
40013;BME280;37387;42.672;23.334;2022-09-21T07:43:29;946.2;;;15.2;56.7
40013;BME280;37387;42.672;23.334;2022-09-21T07:44:29;946.2;;;15.3;58.0
40013;BME280;37387;42.672;23.334;2022-09-21T07:45:29;946.2;;;15.1;58.0
40013;BME280;37387;42.672;23.334;2022-09-21T07:46:29;946.2;;;15.0;58.4
40013;BME280;37387;42.672;23.334;2022-09-21T07:47:29;946.2;;;14.9;58.9
40013;BME280;37387;42.672;23.334;2022-09-21T07:48:29;946.2;;;14.4;59.2
40013;BME280;37387;42.672;23.334;2022-09-21T07:49:29;946.3;;;14.8;60.6
40013;BME280;37387;42.672;23.334;2022-09-21T07:50:30;946.1;;;14.6;61.1
40013;BME280;37387;42.672;23.334;2022-09-21T07:51:29;946.1;;;14.7;61.1
40013;BME280;37387;42.672;23.334;2022-09-21T07:52:29;946.2;;;14.9;59.9
40013;BME280;37387;42.672;23.334;2022-09-21T07:53:29;946.1;;;15.0;59.7
40013;BME280;37387;42.672;23.334;2022-09-21T07:54:29;946.1;;;14.9;59.7
40013;BME280;37387;42.672;23.334;2022-09-21T07:55:29;946.2;;;15.1;59.0
40013;BME280;37387;42.672;23.334;2022-09-21T07:56:29;946.2;;;15.0;59.1
40013;BME280;37387;42.672;23.334;2022-09-21T07:57:29;946.2;;;15.1;59.1
40013;BME280;37387;42.672;23.334;2022-09-21T07:58:29;946.2;;;15.5;58.8
40013;BME280;37387;42.672;23.334;2022-09-21T08:00:29;946.2;;;15.1;57.7
40013;BME280;37387;42.672;23.334;2022-09-21T08:01:30;946.2;;;14.8;59.7
40013;BME280;37387;42.672;23.334;2022-09-21T08:02:29;946.2;;;14.9;59.7
40013;BME280;37387;42.672;23.334;2022-09-21T08:03:29;946.2;;;15.2;59.2
40013;BME280;37387;42.672;23.334;2022-09-21T08:04:29;946.2;;;15.6;59.2
40013;BME280;37387;42.672;23.334;2022-09-21T08:05:29;946.2;;;15.7;57.3
40013;BME280;37387;42.672;23.334;2022-09-21T08:06:30;946.2;;;16.0;57.3
40013;BME280;37387;42.672;23.334;2022-09-21T08:08:29;946.2;;;16.2;55.2
40013;BME280;37387;42.672;23.334;2022-09-21T08:10:29;946.1;;;15.9;54.9
40013;BME280;37387;42.672;23.334;2022-09-21T08:11:29;946.1;;;15.6;55.5
40013;BME280;37387;42.672;23.334;2022-09-21T08:12:29;946.1;;;16.2;56.2
40013;BME280;37387;42.672;23.334;2022-09-21T08:13:29;946.2;;;16.5;54.3
40013;BME280;37387;42.672;23.334;2022-09-21T08:14:29;946.2;;;16.8;53.6
40013;BME280;37387;42.672;23.334;2022-09-21T08:15:29;946.2;;;17.1;52.4
40013;BME280;37387;42.672;23.334;2022-09-21T08:16:29;946.2;;;16.7;52.9
40013;BME280;37387;42.672;23.334;2022-09-21T08:17:29;946.2;;;16.9;52.7
40013;BME280;37387;42.672;23.334;2022-09-21T08:18:29;946.2;;;16.8;52.8
40013;BME280;37387;42.672;23.334;2022-09-21T08:19:29;946.2;;;16.6;52.8
40013;BME280;37387;42.672;23.334;2022-09-21T08:20:29;946.2;;;16.7;53.4
40013;BME280;37387;42.672;23.334;2022-09-21T08:21:29;946.1;;;16.3;54.2
40013;BME280;37387;42.672;23.334;2022-09-21T08:22:29;946.1;;;16.2;54.7
40013;BME280;37387;42.672;23.334;2022-09-21T08:23:29;946.1;;;16.4;55.2
40013;BME280;37387;42.672;23.334;2022-09-21T08:25:29;946.1;;;16.6;54.8
40013;BME280;37387;42.672;23.334;2022-09-21T08:26:29;946.1;;;16.8;53.7
40013;BME280;37387;42.672;23.334;2022-09-21T08:27:29;946.2;;;17.0;53.4
40013;BME280;37387;42.672;23.334;2022-09-21T08:28:29;946.2;;;16.6;53.9
40013;BME280;37387;42.672;23.334;2022-09-21T08:29:29;946.2;;;16.8;53.5
40013;BME280;37387;42.672;23.334;2022-09-21T08:31:29;946.2;;;17.2;53.5
40013;BME280;37387;42.672;23.334;2022-09-21T08:32:29;946.2;;;17.3;52.7
40013;BME280;37387;42.672;23.334;2022-09-21T08:33:29;946.1;;;17.7;52.4
40013;BME280;37387;42.672;23.334;2022-09-21T08:34:29;946.1;;;17.8;51.8
40013;BME280;37387;42.672;23.334;2022-09-21T08:35:29;946.1;;;18.0;51.2
40013;BME280;37387;42.672;23.334;2022-09-21T08:36:29;946.0;;;18.1;50.0
40013;BME280;37387;42.672;23.334;2022-09-21T08:39:29;946.1;;;17.8;50.2
40013;BME280;37387;42.672;23.334;2022-09-21T08:40:29;946.1;;;17.5;50.5
40013;BME280;37387;42.672;23.334;2022-09-21T08:41:34;946.1;;;18.0;49.8
40013;BME280;37387;42.672;23.334;2022-09-21T08:42:36;946.1;;;18.1;49.6
40013;BME280;37387;42.672;23.334;2022-09-21T08:43:30;946.2;;;18.0;49.8
40013;BME280;37387;42.672;23.334;2022-09-21T08:44:31;946.2;;;17.0;49.8
40013;BME280;37387;42.672;23.334;2022-09-21T08:45:31;946.1;;;17.3;50.6
40013;BME280;37387;42.672;23.334;2022-09-21T08:46:30;946.1;;;17.7;50.6
40013;BME280;37387;42.672;23.334;2022-09-21T08:47:33;946.1;;;17.8;49.9
40013;BME280;37387;42.672;23.334;2022-09-21T08:49:29;946.1;;;18.1;49.4
40013;BME280;37387;42.672;23.334;2022-09-21T08:50:31;946.0;;;18.3;48.2
40013;BME280;37387;42.672;23.334;2022-09-21T08:51:30;946.0;;;18.0;48.2
40013;BME280;37387;42.672;23.334;2022-09-21T08:52:29;946.0;;;18.6;48.2
40013;BME280;37387;42.672;23.334;2022-09-21T08:53:30;946.0;;;18.2;46.6
40013;BME280;37387;42.672;23.334;2022-09-21T08:54:33;946.0;;;18.1;46.8
40013;BME280;37387;42.672;23.334;2022-09-21T08:55:29;946.0;;;18.4;47.0
40013;BME280;37387;42.672;23.334;2022-09-21T08:56:29;946.0;;;18.7;47.0
40013;BME280;37387;42.672;23.334;2022-09-21T08:57:30;946.0;;;18.8;46.5
40013;BME280;37387;42.672;23.334;2022-09-21T08:58:30;946.0;;;18.9;46.0
40013;BME280;37387;42.672;23.334;2022-09-21T08:59:29;945.9;;;18.2;46.1
40013;BME280;37387;42.672;23.334;2022-09-21T09:00:31;945.9;;;17.9;46.7
40013;BME280;37387;42.672;23.334;2022-09-21T09:01:31;946.0;;;17.7;48.1
40013;BME280;37387;42.672;23.334;2022-09-21T09:02:37;945.9;;;17.8;47.9
40013;BME280;37387;42.672;23.334;2022-09-21T09:04:29;946.0;;;18.0;48.2
40013;BME280;37387;42.672;23.334;2022-09-21T09:05:32;945.9;;;17.8;48.1
40013;BME280;37387;42.672;23.334;2022-09-21T09:06:30;945.9;;;17.4;48.2
40013;BME280;37387;42.672;23.334;2022-09-21T09:07:34;945.9;;;17.5;48.5